Airport ID:KN38
Update Time (UTC):22/09/2019 12:50
Wind Speed (Knots):6
Wind Direction (Magnetic):210
Temperature (°C):16
Dew Point (°C):16
Humidity (%):99
Altimeter (inHg):30.19
Density Altitude (Feet):
Visibility (Miles):6
Clouds (Hundreds of feet):CLR
Present Weather:BR
METAR:METAR KN38 221250Z AUTO 20006KT 6SM BR CLR 16/16 A3019 RMK AO2

The data displayed is for advisory purposes only and is not to be used for flight planning or operations.

This page is not automatically refreshed. Reload the page to see current data.